createdAt,value
2024-01-20T00:02:01.930Z,102291.16
2024-01-20T00:04:31.050Z,102278.78
2024-01-20T00:07:00.325Z,102265.00
2024-01-20T00:09:34.762Z,102274.09
2024-01-20T00:12:11.050Z,102262.84
2024-01-20T00:14:40.177Z,102253.19
2024-01-20T00:17:13.638Z,102285.94
2024-01-20T00:19:54.161Z,102281.34
2024-01-20T00:22:24.161Z,102277.28
2024-01-20T00:24:53.868Z,102257.47
2024-01-20T00:27:23.170Z,102304.84
2024-01-20T00:29:52.305Z,102302.41
2024-01-20T00:32:21.322Z,102293.09
2024-01-20T00:34:59.837Z,102286.31
2024-01-20T00:37:36.794Z,102296.69
2024-01-20T00:40:06.598Z,102299.91
2024-01-20T00:42:37.902Z,102316.53
2024-01-20T00:45:07.647Z,102314.59
2024-01-20T00:47:39.627Z,102317.44
2024-01-20T00:50:10.084Z,102303.66
2024-01-20T00:52:39.244Z,102307.22
2024-01-20T00:55:08.777Z,102320.28
2024-01-20T00:57:37.613Z,102332.78
2024-01-20T01:00:12.994Z,102269.84
2024-01-20T01:02:42.944Z,102342.06
2024-01-20T01:05:12.103Z,102335.31
2024-01-20T01:07:40.840Z,102343.69
2024-01-20T01:10:09.834Z,102341.72
2024-01-20T01:12:38.858Z,102305.63
2024-01-20T01:15:08.025Z,102350.34
2024-01-20T01:17:36.752Z,102337.25
2024-01-20T01:20:06.570Z,102363.03
2024-01-20T01:22:35.615Z,102342.97
2024-01-20T01:25:04.718Z,102378.78
2024-01-20T01:27:33.348Z,102390.25
2024-01-20T01:30:05.002Z,102398.31
2024-01-20T01:32:34.069Z,102402.78
2024-01-20T01:35:02.978Z,102397.94
2024-01-20T01:37:31.407Z,102396.69
2024-01-20T01:39:59.941Z,102394.88
2024-01-20T01:42:28.552Z,102404.19
2024-01-20T01:44:57.457Z,102419.97
2024-01-20T01:47:29.295Z,102358.00
2024-01-20T01:49:58.597Z,102419.63
2024-01-20T01:52:28.896Z,102389.94
2024-01-20T01:54:59.139Z,102388.47
2024-01-20T01:57:30.358Z,102402.78
2024-01-20T02:00:00.341Z,102408.31
2024-01-20T02:02:29.422Z,102405.44
2024-01-20T02:04:58.114Z,102405.22
2024-01-20T02:07:27.416Z,102412.72
2024-01-20T02:09:55.970Z,102411.97
2024-01-20T02:12:25.780Z,102423.03
2024-01-20T02:14:57.239Z,102416.19
2024-01-20T02:17:25.783Z,102445.16
2024-01-20T02:19:54.513Z,102431.38
2024-01-20T02:22:28.300Z,102435.31
2024-01-20T02:24:56.728Z,102432.97
2024-01-20T02:27:25.401Z,102391.78
2024-01-20T02:29:54.038Z,102455.88
2024-01-20T02:32:22.789Z,102472.69
2024-01-20T02:34:52.013Z,102465.88
2024-01-20T02:37:21.158Z,102485.56
2024-01-20T02:39:50.945Z,102464.47
2024-01-20T02:42:19.480Z,102463.94
2024-01-20T02:44:48.362Z,102467.47
2024-01-20T02:47:16.846Z,102474.31
2024-01-20T02:49:45.880Z,102480.22
2024-01-20T02:52:14.520Z,102443.31
2024-01-20T02:54:43.316Z,102490.97
2024-01-20T02:57:14.654Z,102513.56
2024-01-20T02:59:43.791Z,102505.09
2024-01-20T03:02:12.598Z,102506.00
2024-01-20T03:04:41.174Z,102526.09
2024-01-20T03:07:09.977Z,102509.44
2024-01-20T03:09:38.889Z,102516.59
2024-01-20T03:12:08.219Z,102488.81
2024-01-20T03:14:37.323Z,102499.25
2024-01-20T03:17:09.197Z,102503.00
2024-01-20T03:19:38.134Z,102499.28
2024-01-20T03:22:07.099Z,102508.47
2024-01-20T03:24:35.927Z,102511.53
2024-01-20T03:27:04.637Z,102459.16
2024-01-20T03:29:33.755Z,102509.00
2024-01-20T03:32:02.582Z,102505.09
2024-01-20T03:34:31.301Z,102493.47
2024-01-20T03:37:00.258Z,102491.16
2024-01-20T03:39:29.305Z,102495.47
2024-01-20T03:41:57.867Z,102497.28
2024-01-20T03:44:27.177Z,102496.19
2024-01-20T03:46:55.838Z,102488.84
2024-01-20T03:49:24.697Z,102486.88
2024-01-20T03:51:53.816Z,102451.38
2024-01-20T03:54:22.595Z,102490.47
2024-01-20T03:56:51.376Z,102503.53
2024-01-20T03:59:20.328Z,102523.22
2024-01-20T04:01:49.093Z,102516.22
2024-01-20T04:04:18.114Z,102521.94
2024-01-20T04:06:46.680Z,102503.81
2024-01-20T04:09:15.808Z,102561.34
2024-01-20T04:11:44.494Z,102557.47
2024-01-20T04:14:14.467Z,102541.16
2024-01-20T04:16:43.180Z,102542.47
2024-01-20T04:19:12.128Z,102538.72
2024-01-20T04:21:43.303Z,102537.88
2024-01-20T04:24:11.922Z,102497.00
2024-01-20T04:26:40.917Z,102557.28
2024-01-20T04:29:09.755Z,102548.69
2024-01-20T04:31:38.416Z,102557.13
2024-01-20T04:34:07.173Z,102543.34
2024-01-20T04:36:35.907Z,102548.56
2024-01-20T04:39:04.772Z,102526.53
2024-01-20T04:41:33.342Z,102533.88
2024-01-20T04:44:02.222Z,102553.06
2024-01-20T04:46:33.654Z,102543.94
2024-01-20T04:49:02.420Z,102546.63
2024-01-20T04:51:31.353Z,102537.66
2024-01-20T04:54:00.050Z,102534.09
2024-01-20T04:56:28.895Z,102544.47
2024-01-20T04:58:58.392Z,102554.69
2024-01-20T05:01:27.169Z,102536.56
2024-01-20T05:03:56.245Z,102552.31
2024-01-20T05:06:25.050Z,102545.16
2024-01-20T05:08:53.932Z,102486.78
2024-01-20T05:11:22.654Z,102548.38
2024-01-20T05:13:51.434Z,102538.31
2024-01-20T05:16:20.896Z,102534.53
2024-01-20T05:18:50.795Z,102537.72
2024-01-20T05:21:19.814Z,102525.31
2024-01-20T05:23:48.411Z,102483.69
2024-01-20T05:26:17.341Z,102535.03
2024-01-20T05:28:46.172Z,102546.16
2024-01-20T05:31:18.071Z,102547.47
2024-01-20T05:33:47.036Z,102527.53
2024-01-20T05:36:15.884Z,102486.19
2024-01-20T05:38:44.692Z,102533.06
2024-01-20T05:41:14.211Z,102525.88
2024-01-20T05:43:45.706Z,102529.09
2024-01-20T05:46:14.509Z,102557.72
2024-01-20T05:48:43.358Z,102551.38
2024-01-20T05:51:12.282Z,102502.84
2024-01-20T05:53:42.155Z,102549.28
2024-01-20T05:56:11.000Z,102552.19
2024-01-20T05:58:40.075Z,102570.19
2024-01-20T06:01:11.991Z,102547.34
2024-01-20T06:03:40.731Z,102555.34
2024-01-20T06:06:10.927Z,102551.88
2024-01-20T06:08:41.382Z,102553.41
2024-01-20T06:11:11.726Z,102564.03
2024-01-20T06:13:40.278Z,102559.06
2024-01-20T06:16:09.327Z,102539.28
2024-01-20T06:18:38.125Z,102528.53
2024-01-20T06:21:07.237Z,102512.19
2024-01-20T06:23:36.582Z,102528.81
2024-01-20T06:26:06.001Z,102550.03
2024-01-20T06:28:34.637Z,102552.22
2024-01-20T06:31:03.894Z,102558.25
2024-01-20T06:33:32.775Z,102571.72
2024-01-20T06:36:01.865Z,102563.25
2024-01-20T06:38:30.581Z,102559.84
2024-01-20T06:41:00.275Z,102533.41
2024-01-20T06:43:29.233Z,102572.41
2024-01-20T06:45:58.294Z,102581.34
2024-01-20T06:48:28.620Z,102570.50
2024-01-20T06:51:00.909Z,102575.75
2024-01-20T06:53:29.652Z,102591.84
2024-01-20T06:55:58.755Z,102596.88
2024-01-20T06:58:27.594Z,102589.31
2024-01-20T07:00:56.541Z,102587.81
2024-01-20T07:03:25.973Z,102602.44
2024-01-20T07:05:54.879Z,102591.25
2024-01-20T07:08:23.731Z,102600.34
2024-01-20T07:10:52.216Z,102599.19
2024-01-20T07:13:21.054Z,102601.88
2024-01-20T07:15:49.743Z,102607.97
2024-01-20T07:18:18.933Z,102597.84
2024-01-20T07:20:50.935Z,102617.22
2024-01-20T07:23:19.876Z,102616.72
2024-01-20T07:25:48.872Z,102617.94
2024-01-20T07:28:17.833Z,102621.38
2024-01-20T07:30:47.137Z,102611.53
2024-01-20T07:33:15.800Z,102613.94
2024-01-20T07:35:44.695Z,102614.06
2024-01-20T07:38:13.886Z,102603.22
2024-01-20T07:40:43.337Z,102595.47
2024-01-20T07:43:12.294Z,102599.03
2024-01-20T07:45:42.856Z,102595.16
2024-01-20T07:48:11.962Z,102598.41
2024-01-20T07:50:41.107Z,102600.34
2024-01-20T07:53:09.984Z,102596.44
2024-01-20T07:55:38.946Z,102601.06
2024-01-20T07:58:07.956Z,102606.94
2024-01-20T08:00:36.923Z,102595.63
2024-01-20T08:03:06.436Z,102585.69
2024-01-20T08:05:35.910Z,102608.28
2024-01-20T08:08:05.346Z,102608.13
2024-01-20T08:10:34.377Z,102611.41
2024-01-20T08:13:03.001Z,102603.31
2024-01-20T08:15:32.112Z,102606.88
2024-01-20T08:18:02.190Z,102606.03
2024-01-20T08:20:31.237Z,102586.00
2024-01-20T08:23:00.197Z,102616.34
2024-01-20T08:25:28.894Z,102612.59
2024-01-20T08:27:57.753Z,102621.84
2024-01-20T08:30:27.460Z,102608.38
2024-01-20T08:33:00.434Z,102624.75
2024-01-20T08:35:31.553Z,102635.94
2024-01-20T08:38:00.278Z,102603.34
2024-01-20T08:40:29.329Z,102656.69
2024-01-20T08:42:59.515Z,102677.28
2024-01-20T08:45:28.729Z,102644.47
2024-01-20T08:48:02.134Z,102657.31
2024-01-20T08:50:31.112Z,102645.41
2024-01-20T08:53:00.362Z,102652.25
2024-01-20T08:55:29.308Z,102648.72
2024-01-20T08:57:59.113Z,102639.59
2024-01-20T09:00:27.808Z,102611.78
2024-01-20T09:02:56.647Z,102670.16
2024-01-20T09:05:26.076Z,102651.06
2024-01-20T09:08:07.161Z,102661.81
2024-01-20T09:10:37.338Z,102622.84
2024-01-20T09:13:06.912Z,102663.63
2024-01-20T09:15:36.171Z,102657.81
2024-01-20T09:18:05.886Z,102668.75
2024-01-20T09:20:34.852Z,102621.09
2024-01-20T09:23:03.917Z,102664.84
2024-01-20T09:25:32.810Z,102629.44
2024-01-20T09:28:02.399Z,102628.69
2024-01-20T09:30:31.126Z,102661.00
2024-01-20T09:33:00.206Z,102638.22
2024-01-20T09:35:29.453Z,102659.38
2024-01-20T09:37:58.412Z,102680.81
2024-01-20T09:40:28.292Z,102684.09
2024-01-20T09:42:57.222Z,102692.88
2024-01-20T09:45:26.940Z,102681.09
2024-01-20T09:47:57.403Z,102691.06
2024-01-20T09:50:26.330Z,102650.13
2024-01-20T09:53:10.246Z,102700.88
2024-01-20T09:55:39.066Z,102697.91
2024-01-20T09:58:10.666Z,102702.97
2024-01-20T10:00:41.323Z,102703.84
2024-01-20T10:03:11.543Z,102703.50
2024-01-20T10:05:40.665Z,102706.34
2024-01-20T10:08:09.504Z,102714.97
2024-01-20T10:10:38.919Z,102710.91
2024-01-20T10:13:07.778Z,102705.63
2024-01-20T10:15:38.279Z,102703.06
2024-01-20T10:18:13.030Z,102708.25
2024-01-20T10:20:43.070Z,102716.41
2024-01-20T10:23:12.815Z,102674.28
2024-01-20T10:25:41.774Z,102712.16
2024-01-20T10:28:10.761Z,102711.78
2024-01-20T10:30:40.679Z,102687.69
2024-01-20T10:33:11.480Z,102695.38
2024-01-20T10:35:40.903Z,102732.72
2024-01-20T10:38:15.303Z,102750.53
2024-01-20T10:40:48.470Z,102753.19
2024-01-20T10:43:18.139Z,102715.97
2024-01-20T10:46:00.642Z,102716.97
2024-01-20T10:48:35.955Z,102732.50
2024-01-20T10:51:10.871Z,102719.88
2024-01-20T10:53:43.218Z,102730.41
2024-01-20T10:56:13.701Z,102751.63
2024-01-20T10:58:50.140Z,102732.34
2024-01-20T11:01:20.323Z,102753.59
2024-01-20T11:03:49.615Z,102738.94
2024-01-20T11:06:22.855Z,102720.69
2024-01-20T11:08:53.685Z,102751.41
2024-01-20T11:11:28.984Z,102758.28
2024-01-20T11:14:01.619Z,102743.38
2024-01-20T11:16:39.121Z,102755.25
2024-01-20T11:19:13.823Z,102743.94
2024-01-20T11:21:43.072Z,102759.06
2024-01-20T11:24:12.873Z,102755.75
2024-01-20T11:26:43.221Z,102741.59
2024-01-20T11:29:12.637Z,102755.66
2024-01-20T11:31:50.864Z,102777.81
2024-01-20T11:34:52.883Z,102772.66
2024-01-20T11:56:14.176Z,102784.44
2024-01-20T11:58:44.571Z,102781.91
2024-01-20T12:01:16.006Z,102783.00
2024-01-20T12:03:44.865Z,102784.59
2024-01-20T12:06:17.028Z,102779.06
2024-01-20T12:08:47.357Z,102797.72
2024-01-20T12:11:20.869Z,102783.16
2024-01-20T12:13:52.515Z,102806.34
2024-01-20T12:16:21.707Z,102803.81
2024-01-20T12:18:52.118Z,102799.16
2024-01-20T12:21:23.584Z,102806.31
2024-01-20T12:23:54.643Z,102808.44
2024-01-20T12:26:24.453Z,102812.22
2024-01-20T12:28:55.021Z,102822.44
2024-01-20T12:31:27.969Z,102833.03
2024-01-20T12:33:56.656Z,102805.50
2024-01-20T12:36:26.747Z,102825.78
2024-01-20T12:38:56.003Z,102825.06
2024-01-20T12:41:25.001Z,102770.09
2024-01-20T12:43:56.170Z,102820.91
2024-01-20T12:46:25.093Z,102827.72
2024-01-20T12:48:53.810Z,102826.28
2024-01-20T12:51:22.817Z,102821.06
2024-01-20T12:53:52.265Z,102822.13
2024-01-20T12:56:21.360Z,102819.75
2024-01-20T12:58:50.100Z,102820.28
2024-01-20T13:01:20.382Z,102790.94
2024-01-20T13:03:49.752Z,102836.75
2024-01-20T13:06:19.006Z,102837.25
2024-01-20T13:08:51.685Z,102837.97
2024-01-20T13:11:21.078Z,102852.31
2024-01-20T13:13:50.542Z,102853.38
2024-01-20T13:16:19.217Z,102830.22
2024-01-20T13:18:48.270Z,102821.38
2024-01-20T13:21:17.041Z,102861.63
2024-01-20T13:23:49.084Z,102856.00
2024-01-20T13:26:20.093Z,102836.25
2024-01-20T13:28:53.950Z,102846.81
2024-01-20T13:31:24.906Z,102852.16
2024-01-20T13:33:55.489Z,102818.50
2024-01-20T13:36:24.484Z,102853.88
2024-01-20T13:38:56.421Z,102850.56
2024-01-20T13:41:26.256Z,102866.69
2024-01-20T13:43:55.445Z,102866.00
2024-01-20T13:46:24.433Z,102877.13
2024-01-20T13:48:53.493Z,102876.91
2024-01-20T13:51:24.238Z,102877.63
2024-01-20T13:53:54.607Z,102866.94
2024-01-20T13:56:26.222Z,102870.28
2024-01-20T13:58:55.902Z,102866.47
2024-01-20T14:01:25.969Z,102882.47
2024-01-20T14:03:55.637Z,102866.00
2024-01-20T14:06:26.532Z,102866.47
2024-01-20T14:08:55.561Z,102859.66
2024-01-20T14:11:25.623Z,102881.91
2024-01-20T14:13:54.643Z,102864.94
2024-01-20T14:16:23.502Z,102893.88
2024-01-20T14:18:52.386Z,102867.78
2024-01-20T14:21:21.405Z,102853.63
2024-01-20T14:23:50.394Z,102882.22
2024-01-20T14:26:19.628Z,102868.03
2024-01-20T14:28:50.567Z,102838.88
2024-01-20T14:31:19.450Z,102877.91
2024-01-20T14:33:48.657Z,102894.44
2024-01-20T14:36:17.471Z,102881.16
2024-01-20T14:38:46.329Z,102886.75
2024-01-20T14:41:15.089Z,102902.75
2024-01-20T14:43:44.387Z,102858.69
2024-01-20T14:46:12.989Z,102883.97
2024-01-20T14:48:41.889Z,102892.41
2024-01-20T14:51:11.093Z,102882.50
2024-01-20T14:53:40.330Z,102878.94
2024-01-20T14:56:09.296Z,102879.44
2024-01-20T14:58:38.032Z,102867.13
2024-01-20T15:01:06.938Z,102832.72
2024-01-20T15:03:35.970Z,102885.03
2024-01-20T15:06:07.715Z,102897.41
2024-01-20T15:08:37.529Z,102874.94
2024-01-20T15:11:06.474Z,102884.16
2024-01-20T15:13:35.110Z,102877.66
2024-01-20T15:16:05.371Z,102881.59
2024-01-20T15:18:34.149Z,102874.38
2024-01-20T15:21:03.205Z,102866.78
2024-01-20T15:23:32.159Z,102872.78
2024-01-20T15:26:01.552Z,102875.00
2024-01-20T15:28:30.599Z,102884.59
2024-01-20T15:30:59.464Z,102871.22
2024-01-20T15:33:28.680Z,102879.41
2024-01-20T15:35:57.509Z,102895.25
2024-01-20T15:38:26.449Z,102886.22
2024-01-20T15:40:57.590Z,102861.34
2024-01-20T15:43:26.532Z,102854.97
2024-01-20T15:45:55.382Z,102885.09
2024-01-20T15:48:24.385Z,102874.88
2024-01-20T15:50:53.269Z,102859.38
2024-01-20T15:53:22.188Z,102859.47
2024-01-20T15:55:51.339Z,102888.28
2024-01-20T15:58:20.349Z,102867.97
2024-01-20T16:00:49.340Z,102860.28
2024-01-20T16:03:18.482Z,102882.25
2024-01-20T16:05:50.086Z,102861.25
2024-01-20T16:08:19.106Z,102816.47
2024-01-20T16:10:47.681Z,102863.66
2024-01-20T16:13:17.084Z,102842.06
2024-01-20T16:15:46.343Z,102848.34
2024-01-20T16:18:17.044Z,102850.56
2024-01-20T16:20:46.198Z,102854.97
2024-01-20T16:23:18.583Z,102867.97
2024-01-20T16:25:51.204Z,102873.66
2024-01-20T16:28:19.914Z,102863.66
2024-01-20T16:30:48.777Z,102887.84
2024-01-20T16:33:17.828Z,102871.28
2024-01-20T16:35:46.963Z,102865.75
2024-01-20T16:38:17.130Z,102885.47
2024-01-20T16:40:47.483Z,102855.97
2024-01-20T16:43:16.202Z,102862.66
2024-01-20T16:45:45.228Z,102863.47
2024-01-20T16:48:14.910Z,102827.69
2024-01-20T16:50:43.942Z,102874.53
2024-01-20T16:53:13.795Z,102884.44
2024-01-20T16:55:42.667Z,102889.44
2024-01-20T16:58:16.771Z,102870.81
2024-01-20T17:00:45.778Z,102861.09
2024-01-20T17:03:19.668Z,102850.22
2024-01-20T17:05:51.190Z,102889.84
2024-01-20T17:08:20.490Z,102883.44
2024-01-20T17:10:50.855Z,102889.59
2024-01-20T17:13:19.636Z,102887.09
2024-01-20T17:15:49.749Z,102882.03
2024-01-20T17:18:18.747Z,102890.41
2024-01-20T17:20:47.736Z,102874.59
2024-01-20T17:23:16.889Z,102873.00
2024-01-20T17:25:48.602Z,102890.22
2024-01-20T17:28:19.213Z,102878.84
2024-01-20T17:30:53.824Z,102897.81
2024-01-20T17:33:23.064Z,102901.53
2024-01-20T17:35:54.830Z,102877.13
2024-01-20T17:38:23.749Z,102880.13
2024-01-20T17:40:52.397Z,102900.25
2024-01-20T17:43:21.686Z,102920.25
2024-01-20T17:45:52.022Z,102918.94
2024-01-20T17:48:23.799Z,102893.25
2024-01-20T17:50:53.950Z,102904.84
2024-01-20T17:53:27.040Z,102892.97
2024-01-20T17:55:55.687Z,102923.75
2024-01-20T17:58:24.467Z,102898.34
2024-01-20T18:00:57.133Z,102906.75
2024-01-20T18:03:27.247Z,102926.47
2024-01-20T18:05:56.173Z,102936.97
2024-01-20T18:08:26.074Z,102921.69
2024-01-20T18:10:57.108Z,102912.66
2024-01-20T18:13:26.156Z,102916.38
2024-01-20T18:15:54.947Z,102925.56
2024-01-20T18:18:23.848Z,102888.34
2024-01-20T18:20:53.127Z,102921.09
2024-01-20T18:23:23.449Z,102923.06
2024-01-20T18:25:52.686Z,102920.69
2024-01-20T18:28:21.180Z,102908.28
2024-01-20T18:30:50.103Z,102922.06
2024-01-20T18:33:19.791Z,102913.28
2024-01-20T18:35:48.802Z,102914.97
2024-01-20T18:38:18.911Z,102918.66
2024-01-20T18:40:47.743Z,102924.56
2024-01-20T18:43:16.876Z,102942.88
2024-01-20T18:45:45.825Z,102927.19
2024-01-20T18:48:14.796Z,102929.69
2024-01-20T18:50:44.165Z,102905.75
2024-01-20T18:53:14.812Z,102910.34
2024-01-20T18:55:43.825Z,102925.47
2024-01-20T18:58:13.876Z,102920.66
2024-01-20T19:00:42.674Z,102904.88
2024-01-20T19:03:12.099Z,102934.16
2024-01-20T19:05:41.496Z,102909.47
2024-01-20T19:08:10.476Z,102912.25
2024-01-20T19:10:41.435Z,102907.75
2024-01-20T19:13:13.055Z,102927.66
2024-01-20T19:15:42.397Z,102915.31
2024-01-20T19:18:11.694Z,102926.00
2024-01-20T19:20:42.210Z,102902.03
2024-01-20T19:23:14.658Z,102903.13
2024-01-20T19:25:43.646Z,102925.31
2024-01-20T19:28:12.460Z,102910.63
2024-01-20T19:30:41.230Z,102928.91
2024-01-20T19:33:10.480Z,102898.44
2024-01-20T19:35:39.315Z,102912.22
2024-01-20T19:38:08.246Z,102894.22
2024-01-20T19:40:37.600Z,102919.53
2024-01-20T19:43:06.537Z,102908.78
2024-01-20T19:45:35.718Z,102916.91
2024-01-20T19:48:05.154Z,102905.00
2024-01-20T19:50:33.887Z,102919.22
2024-01-20T19:53:02.817Z,102915.00
2024-01-20T19:55:31.178Z,102935.34
2024-01-20T19:57:59.698Z,102904.69
2024-01-20T20:00:28.928Z,102912.81
2024-01-20T20:03:00.849Z,102913.69
2024-01-20T20:05:30.060Z,102885.28
2024-01-20T20:08:00.379Z,102886.69
2024-01-20T20:10:31.123Z,102882.56
2024-01-20T20:12:59.977Z,102908.09
2024-01-20T20:15:30.002Z,102888.19
2024-01-20T20:17:59.081Z,102892.81
2024-01-20T20:20:27.826Z,102891.31
2024-01-20T20:22:57.082Z,102918.56
2024-01-20T20:25:27.565Z,102890.19
2024-01-20T20:27:56.086Z,102890.19
2024-01-20T20:30:28.731Z,102896.56
2024-01-20T20:32:57.946Z,102906.69
2024-01-20T20:35:26.783Z,102902.97
2024-01-20T20:37:56.944Z,102891.66
2024-01-20T20:40:26.040Z,102877.66
2024-01-20T20:42:56.152Z,102907.28
2024-01-20T20:45:25.475Z,102895.78
2024-01-20T20:47:54.350Z,102907.81
2024-01-20T20:50:23.114Z,102920.09
2024-01-20T20:52:52.060Z,102917.19
2024-01-20T20:55:21.200Z,102922.13
2024-01-20T20:57:49.908Z,102916.28
2024-01-20T21:00:21.015Z,102922.41
2024-01-20T21:02:49.510Z,102910.09
2024-01-20T21:05:18.808Z,102903.00
2024-01-20T21:07:48.144Z,102934.84
2024-01-20T21:10:18.381Z,102929.94
2024-01-20T21:12:47.879Z,102905.22
2024-01-20T21:15:17.500Z,102918.50
2024-01-20T21:17:46.272Z,102923.91
2024-01-20T21:20:15.293Z,102915.31
2024-01-20T21:22:44.005Z,102881.91
2024-01-20T21:25:12.967Z,102919.63
2024-01-20T21:27:41.860Z,102907.34
2024-01-20T21:30:11.239Z,102903.13
2024-01-20T21:32:40.294Z,102920.84
2024-01-20T21:35:09.750Z,102915.44
2024-01-20T21:37:38.899Z,102917.06
2024-01-20T21:40:09.232Z,102920.75
2024-01-20T21:42:40.580Z,102917.75
2024-01-20T21:45:11.042Z,102923.63
2024-01-20T21:47:39.908Z,102927.75
2024-01-20T21:50:09.771Z,102902.44
2024-01-20T21:52:38.563Z,102934.88
2024-01-20T21:55:10.260Z,102932.94
2024-01-20T21:57:39.180Z,102935.56
2024-01-20T22:00:09.033Z,102907.81
2024-01-20T22:02:44.752Z,102939.75
2024-01-20T22:05:14.613Z,102913.75
2024-01-20T22:07:44.520Z,102941.25
2024-01-20T22:10:13.300Z,102929.56
2024-01-20T22:12:42.189Z,102927.25
2024-01-20T22:15:11.434Z,102920.84
2024-01-20T22:17:40.396Z,102923.34
2024-01-20T22:20:10.338Z,102930.56
2024-01-20T22:22:39.279Z,102922.66
2024-01-20T22:25:08.500Z,102951.34
2024-01-20T22:27:41.116Z,102938.94
2024-01-20T22:30:10.787Z,102940.84
2024-01-20T22:32:40.953Z,102896.91
2024-01-20T22:35:10.095Z,102934.88
2024-01-20T22:37:38.954Z,102955.09
2024-01-20T22:40:10.757Z,102941.56
2024-01-20T22:42:42.123Z,102937.16
2024-01-20T22:45:12.996Z,102937.97
2024-01-20T22:47:45.775Z,102955.25
2024-01-20T22:50:15.310Z,102943.09
2024-01-20T22:52:44.325Z,102895.25
2024-01-20T22:55:13.510Z,102934.19
2024-01-20T22:57:43.283Z,102940.66
2024-01-20T23:00:14.534Z,102927.97
2024-01-20T23:02:44.373Z,102939.06
2024-01-20T23:05:13.076Z,102953.38
2024-01-20T23:07:41.945Z,102919.97
2024-01-20T23:10:12.354Z,102940.75
2024-01-20T23:12:41.848Z,102939.97
2024-01-20T23:15:11.043Z,102958.56
2024-01-20T23:17:39.768Z,102948.88
2024-01-20T23:20:11.756Z,102960.69
2024-01-20T23:22:40.499Z,102939.88
2024-01-20T23:25:10.946Z,102942.38
2024-01-20T23:27:39.948Z,102896.66
2024-01-20T23:30:09.071Z,102953.66
2024-01-20T23:32:37.928Z,102937.47
2024-01-20T23:35:07.858Z,102942.38
2024-01-20T23:37:36.665Z,102963.28
2024-01-20T23:40:06.531Z,102946.16
2024-01-20T23:42:35.181Z,102942.25
2024-01-20T23:45:04.099Z,102967.59
2024-01-20T23:47:32.894Z,102949.38
2024-01-20T23:50:02.359Z,102971.31
2024-01-20T23:52:31.654Z,102949.66
2024-01-20T23:55:00.397Z,102974.28
2024-01-20T23:57:28.939Z,102910.13
2024-01-20T23:59:57.416Z,102946.47
